Harrison, Wisconsin
Current Conditions -  °F | °C
As of 7:35 PM on Monday 24 Nov 2014 (Local Time) from KRRL Reporting Station
Moderate Snow Moderate Snow  
Wind Chill: 15°   Ceiling: 400
Heat Index: 23°   Visibility: 1mi
Dew Point: 22°   Wind: 7mph
Humidity: 95%   Direction: 340°NNW
Pressure: 29.53"   Gusts: NA
Location:  45.3595°N, 89.45°W
Report Text: KRRL 250135Z AUTO 34006KT 1SM SN OVC004 M05/M06 A2953 RMK AO2 T10501057
Loading
Personal Weather Stations






























Interactive Weather Map New forecast layout! Learn more

10-Day Weather Forecast

Advertisements
Track Severe Weather on mobile